createdAt,value
2022-09-11T00:00:26.919Z,7.15
2022-09-11T00:02:28.581Z,9.52
2022-09-11T00:04:30.233Z,7.72
2022-09-11T00:06:31.940Z,8.88
2022-09-11T00:08:33.947Z,7.80
2022-09-11T00:10:40.314Z,6.15
2022-09-11T00:12:41.937Z,7.72
2022-09-11T00:14:43.663Z,7.60
2022-09-11T00:16:47.175Z,8.50
2022-09-11T00:20:54.016Z,8.02
2022-09-11T00:22:55.630Z,9.45
2022-09-11T00:24:58.887Z,8.57
2022-09-11T00:27:01.031Z,9.38
2022-09-11T00:29:04.198Z,9.05
2022-09-11T00:31:08.733Z,7.55
2022-09-11T00:33:14.294Z,8.00
2022-09-11T00:35:15.882Z,10.23
2022-09-11T00:37:17.534Z,9.15
2022-09-11T00:39:19.207Z,12.95
2022-09-11T00:41:24.291Z,7.22
2022-09-11T00:43:27.989Z,8.65
2022-09-11T00:47:31.354Z,10.10
2022-09-11T00:49:41.111Z,10.27
2022-09-11T00:51:45.612Z,10.27
2022-09-11T00:53:47.442Z,11.48
2022-09-11T00:55:53.872Z,8.25
2022-09-11T00:58:01.419Z,11.18
2022-09-11T01:00:05.657Z,8.85
2022-09-11T01:02:09.185Z,7.75
2022-09-11T01:04:10.869Z,8.63
2022-09-11T01:06:13.504Z,7.30
2022-09-11T01:08:15.313Z,7.07
2022-09-11T01:10:17.599Z,9.35
2022-09-11T01:12:26.263Z,8.77
2022-09-11T01:15:02.644Z,9.85
2022-09-11T01:17:44.299Z,6.78
2022-09-11T01:20:19.784Z,7.05
2022-09-11T01:22:46.030Z,7.97
2022-09-11T01:25:24.034Z,7.75
2022-09-11T01:27:31.326Z,8.20
2022-09-11T01:29:43.018Z,6.53
2022-09-11T01:31:57.230Z,6.15
2022-09-11T01:34:01.372Z,7.70
2022-09-11T01:36:14.042Z,8.73
2022-09-11T01:38:21.515Z,5.30
2022-09-11T01:40:37.235Z,5.07
2022-09-11T01:42:41.302Z,6.65
2022-09-11T01:45:01.739Z,5.68
2022-09-11T01:47:05.289Z,6.28
2022-09-11T01:49:15.472Z,5.03
2022-09-11T01:51:24.497Z,5.55
2022-09-11T01:53:30.970Z,5.78
2022-09-11T01:55:41.399Z,6.28
2022-09-11T01:57:56.331Z,4.32
2022-09-11T02:00:01.598Z,6.88
2022-09-11T02:02:09.585Z,6.50
2022-09-11T02:04:18.181Z,5.72
2022-09-11T02:06:24.708Z,5.78
2022-09-11T02:08:35.552Z,5.10
2022-09-11T02:10:40.942Z,6.40
2022-09-11T02:12:53.886Z,10.05
2022-09-11T02:14:55.955Z,7.55
2022-09-11T02:17:06.853Z,6.40
2022-09-11T02:19:13.079Z,5.18
2022-09-11T02:21:14.707Z,8.85
2022-09-11T02:23:16.876Z,7.75
2022-09-11T02:25:18.500Z,8.63
2022-09-11T02:27:27.519Z,10.00
2022-09-11T02:29:29.230Z,6.47
2022-09-11T02:31:31.287Z,6.72
2022-09-11T02:33:36.118Z,10.05
2022-09-11T02:35:45.934Z,9.50
2022-09-11T02:37:47.746Z,12.32
2022-09-11T02:40:27.191Z,12.07
2022-09-11T02:43:19.730Z,12.65
2022-09-11T02:45:44.791Z,17.83
2022-09-11T02:48:08.167Z,15.48
2022-09-11T02:50:34.408Z,16.23
2022-09-11T02:53:26.960Z,14.35
2022-09-11T02:55:51.339Z,11.32
2022-09-11T02:58:23.373Z,13.02
2022-09-11T03:00:25.155Z,12.73
2022-09-11T03:02:28.100Z,11.25
2022-09-11T03:04:29.993Z,9.93
2022-09-11T03:06:31.572Z,18.40
2022-09-11T03:08:33.211Z,12.60
2022-09-11T03:10:34.868Z,11.70
2022-09-11T03:12:36.631Z,10.45
2022-09-11T03:14:38.310Z,10.45
2022-09-11T03:16:41.299Z,9.77
2022-09-11T03:18:42.926Z,10.35
2022-09-11T03:20:49.143Z,8.98
2022-09-11T03:22:50.828Z,8.43
2022-09-11T03:24:52.422Z,10.98
2022-09-11T03:26:54.059Z,9.50
2022-09-11T03:28:55.685Z,10.50
2022-09-11T03:30:58.225Z,8.80
2022-09-11T03:33:01.063Z,10.80
2022-09-11T03:35:02.765Z,10.00
2022-09-11T03:37:04.484Z,9.32
2022-09-11T03:39:06.361Z,10.75
2022-09-11T03:41:09.318Z,10.32
2022-09-11T03:43:12.485Z,9.98
2022-09-11T03:45:14.976Z,9.18
2022-09-11T03:47:16.748Z,10.23
2022-09-11T03:49:18.378Z,10.95
2022-09-11T03:51:21.197Z,8.18
2022-09-11T03:53:22.895Z,10.18
2022-09-11T03:55:24.501Z,9.40
2022-09-11T03:57:26.492Z,10.38
2022-09-11T03:59:28.154Z,7.97
2022-09-11T04:01:29.911Z,13.32
2022-09-11T04:03:31.544Z,8.82
2022-09-11T04:05:33.128Z,11.80
2022-09-11T04:07:34.872Z,9.95
2022-09-11T04:09:36.482Z,9.20
2022-09-11T04:11:40.063Z,9.98
2022-09-11T04:13:43.876Z,13.15
2022-09-11T04:15:45.607Z,10.20
2022-09-11T04:17:47.300Z,9.95
2022-09-11T04:19:48.873Z,9.75
2022-09-11T04:21:50.514Z,7.32
2022-09-11T04:23:54.454Z,9.68
2022-09-11T04:25:56.396Z,8.90
2022-09-11T04:27:57.957Z,9.38
2022-09-11T04:29:59.627Z,9.43
2022-09-11T04:32:01.461Z,9.35
2022-09-11T04:34:03.160Z,12.30
2022-09-11T04:36:10.389Z,7.07
2022-09-11T04:38:12.039Z,9.27
2022-09-11T04:40:13.663Z,7.85
2022-09-11T04:42:15.397Z,9.85
2022-09-11T04:44:17.066Z,10.55
2022-09-11T04:46:18.760Z,8.23
2022-09-11T04:48:20.414Z,8.77
2022-09-11T04:50:22.023Z,7.90
2022-09-11T04:52:23.764Z,9.13
2022-09-11T04:54:25.434Z,9.23
2022-09-11T04:56:29.406Z,10.63
2022-09-11T04:58:31.492Z,9.45
2022-09-11T05:00:33.838Z,10.73
2022-09-11T05:02:36.258Z,11.18
2022-09-11T05:04:37.904Z,11.07
2022-09-11T05:06:40.136Z,7.93
2022-09-11T05:08:45.812Z,7.72
2022-09-11T05:10:47.540Z,10.13
2022-09-11T05:12:49.777Z,9.60
2022-09-11T05:14:51.437Z,9.85
2022-09-11T05:16:53.047Z,9.55
2022-09-11T05:18:55.575Z,13.07
2022-09-11T05:21:05.300Z,12.98
2022-09-11T05:23:07.388Z,9.85
2022-09-11T05:25:09.676Z,12.50
2022-09-11T05:27:11.678Z,9.57
2022-09-11T05:29:15.374Z,10.95
2022-09-11T05:33:19.319Z,11.90
2022-09-11T05:35:25.737Z,11.82
2022-09-11T05:37:29.097Z,10.50
2022-09-11T05:39:30.770Z,11.82
2022-09-11T05:41:32.440Z,12.85
2022-09-11T05:43:34.809Z,8.95
2022-09-11T05:45:37.098Z,12.90
2022-09-11T05:47:39.180Z,10.00
2022-09-11T05:49:40.859Z,9.00
2022-09-11T05:51:42.526Z,9.73
2022-09-11T05:53:44.490Z,10.55
2022-09-11T05:55:47.313Z,10.40
2022-09-11T05:57:48.877Z,10.37
2022-09-11T05:59:50.456Z,13.07
2022-09-11T06:01:52.110Z,12.88
2022-09-11T06:03:54.445Z,14.32
2022-09-11T06:05:59.566Z,12.55
2022-09-11T06:08:01.792Z,14.70
2022-09-11T06:10:03.679Z,13.60
2022-09-11T06:12:05.476Z,14.30
2022-09-11T06:14:07.173Z,17.35
2022-09-11T06:16:18.034Z,17.02
2022-09-11T06:18:20.379Z,15.10
2022-09-11T06:20:22.362Z,17.70
2022-09-11T06:22:23.997Z,15.68
2022-09-11T06:24:25.820Z,15.05
2022-09-11T06:26:27.657Z,15.35
2022-09-11T06:28:29.369Z,16.92
2022-09-11T06:30:31.023Z,15.35
2022-09-11T06:32:32.680Z,14.85
2022-09-11T06:34:34.305Z,14.23
2022-09-11T06:36:36.089Z,13.68
2022-09-11T06:38:57.606Z,15.73
2022-09-11T06:41:03.058Z,14.90
2022-09-11T06:43:05.124Z,15.38
2022-09-11T06:45:08.665Z,14.88
2022-09-11T06:47:10.262Z,14.80
2022-09-11T06:49:11.891Z,14.70
2022-09-11T06:51:15.802Z,13.10
2022-09-11T06:53:17.469Z,14.48
2022-09-11T06:55:19.194Z,13.02
2022-09-11T06:57:20.841Z,11.35
2022-09-11T06:59:23.949Z,12.00
2022-09-11T07:01:26.270Z,14.85
2022-09-11T07:03:28.060Z,12.50
2022-09-11T07:05:29.802Z,11.32
2022-09-11T07:07:31.366Z,9.68
2022-09-11T07:09:32.986Z,9.60
2022-09-11T07:11:35.294Z,9.90
2022-09-11T07:13:38.222Z,9.88
2022-09-11T07:15:39.934Z,9.25
2022-09-11T07:17:41.587Z,11.10
2022-09-11T07:19:43.366Z,9.25
2022-09-11T07:21:45.063Z,10.75
2022-09-11T07:23:49.607Z,10.60
2022-09-11T07:25:51.194Z,13.00
2022-09-11T07:27:53.090Z,9.57
2022-09-11T07:29:54.837Z,9.95
2022-09-11T07:31:57.930Z,9.65
2022-09-11T07:34:00.351Z,10.57
2022-09-11T07:36:07.229Z,9.35
2022-09-11T07:38:08.838Z,10.02
2022-09-11T07:40:10.879Z,10.70
2022-09-11T07:42:12.543Z,9.50
2022-09-11T07:44:15.363Z,9.23
2022-09-11T07:46:17.548Z,9.82
2022-09-11T07:48:19.209Z,8.88
2022-09-11T07:50:20.803Z,10.02
2022-09-11T07:52:22.451Z,11.10
2022-09-11T07:54:24.075Z,8.55
2022-09-11T07:56:26.946Z,12.25
2022-09-11T07:58:32.218Z,9.55
2022-09-11T08:00:36.956Z,10.45
2022-09-11T08:02:38.882Z,11.68
2022-09-11T08:04:40.808Z,11.50
2022-09-11T08:06:42.669Z,10.05
2022-09-11T08:08:44.636Z,10.73
2022-09-11T08:10:46.388Z,10.07
2022-09-11T08:12:47.991Z,13.38
2022-09-11T08:14:49.991Z,12.18
2022-09-11T08:16:53.557Z,10.55
2022-09-11T08:21:12.764Z,12.20
2022-09-11T08:23:18.111Z,10.95
2022-09-11T08:25:19.712Z,10.60
2022-09-11T08:27:21.332Z,10.30
2022-09-11T08:29:23.142Z,9.98
2022-09-11T08:31:26.940Z,11.00
2022-09-11T08:33:29.786Z,12.18
2022-09-11T08:35:31.606Z,11.68
2022-09-11T08:37:33.169Z,10.95
2022-09-11T08:39:34.985Z,10.32
2022-09-11T08:41:47.501Z,10.23
2022-09-11T08:43:59.316Z,10.57
2022-09-11T08:46:06.649Z,11.35
2022-09-11T08:48:11.303Z,10.15
2022-09-11T08:50:33.095Z,11.13
2022-09-11T08:52:36.490Z,9.93
2022-09-11T08:54:40.619Z,10.05
2022-09-11T08:56:44.083Z,9.50
2022-09-11T09:01:12.437Z,9.27
2022-09-11T09:03:51.467Z,9.20
2022-09-11T09:06:09.428Z,8.32
2022-09-11T09:08:29.733Z,8.57
2022-09-11T09:10:51.060Z,9.40
2022-09-11T09:13:02.483Z,9.45
2022-09-11T09:15:25.161Z,9.23
2022-09-11T09:18:02.431Z,9.48
2022-09-11T09:20:09.664Z,10.90
2022-09-11T09:22:14.483Z,10.73
2022-09-11T09:24:22.028Z,11.15
2022-09-11T09:26:30.057Z,10.95
2022-09-11T09:28:39.652Z,9.65
2022-09-11T09:30:50.884Z,11.40
2022-09-11T09:33:11.393Z,9.65
2022-09-11T09:35:29.478Z,8.25
2022-09-11T09:37:31.400Z,8.85
2022-09-11T09:39:36.181Z,9.52
2022-09-11T09:41:56.879Z,9.82
2022-09-11T09:44:08.636Z,8.38
2022-09-11T09:46:41.713Z,10.40
2022-09-11T09:48:44.054Z,9.38
2022-09-11T09:50:45.878Z,7.22
2022-09-11T09:52:49.173Z,8.27
2022-09-11T09:54:57.456Z,8.00
2022-09-11T09:57:05.193Z,9.98
2022-09-11T09:59:19.434Z,7.00
2022-09-11T10:01:39.985Z,7.70
2022-09-11T10:03:41.694Z,7.68
2022-09-11T10:05:44.460Z,7.55
2022-09-11T10:07:51.050Z,6.55
2022-09-11T10:09:55.209Z,7.53
2022-09-11T10:12:02.921Z,7.18
2022-09-11T10:14:06.969Z,7.78
2022-09-11T10:16:26.050Z,8.25
2022-09-11T10:18:33.631Z,7.50
2022-09-11T10:20:36.233Z,8.43
2022-09-11T10:22:38.098Z,8.00
2022-09-11T10:24:42.807Z,7.03
2022-09-11T10:26:47.831Z,8.13
2022-09-11T10:28:49.788Z,7.75
2022-09-11T10:31:00.352Z,7.18
2022-09-11T10:33:06.936Z,9.23
2022-09-11T10:35:09.721Z,6.65
2022-09-11T10:37:14.277Z,6.93
2022-09-11T10:39:18.873Z,8.65
2022-09-11T10:41:22.763Z,10.57
2022-09-11T10:43:31.840Z,7.13
2022-09-11T10:45:33.871Z,7.57
2022-09-11T10:47:36.077Z,6.85
2022-09-11T10:49:37.773Z,6.85
2022-09-11T10:51:45.427Z,7.15
2022-09-11T10:53:59.639Z,7.32
2022-09-11T10:56:06.000Z,8.07
2022-09-11T10:58:17.519Z,6.70
2022-09-11T11:00:23.925Z,6.30
2022-09-11T11:02:31.793Z,7.28
2022-09-11T11:04:33.593Z,7.32
2022-09-11T11:07:04.681Z,7.97
2022-09-11T11:09:30.791Z,8.55
2022-09-11T11:11:41.840Z,8.68
2022-09-11T11:14:05.305Z,8.98
2022-09-11T11:16:31.180Z,6.53
2022-09-11T11:18:59.046Z,7.20
2022-09-11T11:21:07.825Z,7.85
2022-09-11T11:23:22.377Z,7.63
2022-09-11T11:25:30.769Z,7.72
2022-09-11T11:27:36.657Z,8.77
2022-09-11T11:29:55.039Z,5.93
2022-09-11T11:31:56.598Z,6.03
2022-09-11T11:34:12.948Z,8.32
2022-09-11T11:36:22.868Z,7.72
2022-09-11T11:38:29.220Z,6.80
2022-09-11T11:40:47.265Z,7.25
2022-09-11T11:42:56.249Z,7.25
2022-09-11T11:45:04.058Z,8.07
2022-09-11T11:47:10.899Z,8.32
2022-09-11T11:49:31.463Z,9.20
2022-09-11T11:51:47.545Z,16.63
2022-09-11T11:54:00.061Z,11.90
2022-09-11T11:56:37.854Z,9.82
2022-09-11T11:58:47.964Z,7.18
2022-09-11T12:00:56.224Z,6.03
2022-09-11T12:03:10.125Z,5.78
2022-09-11T12:05:17.356Z,8.23
2022-09-11T12:07:22.252Z,6.10
2022-09-11T12:09:23.888Z,6.00
2022-09-11T12:11:32.601Z,5.82
2022-09-11T12:13:42.375Z,5.82
2022-09-11T12:16:10.608Z,9.25
2022-09-11T12:18:15.787Z,6.80
2022-09-11T12:20:36.419Z,7.93
2022-09-11T12:22:39.353Z,6.40
2022-09-11T12:24:52.418Z,6.63
2022-09-11T12:27:35.602Z,7.60
2022-09-11T12:29:55.639Z,8.27
2022-09-11T12:32:00.330Z,6.43
2022-09-11T12:34:01.966Z,6.50
2022-09-11T12:36:05.894Z,6.60
2022-09-11T12:38:08.940Z,6.47
2022-09-11T12:40:22.441Z,5.90
2022-09-11T12:42:24.040Z,6.93
2022-09-11T12:44:47.180Z,6.45
2022-09-11T12:46:48.697Z,6.32
2022-09-11T12:49:17.822Z,6.60
2022-09-11T12:53:27.131Z,5.25
2022-09-11T12:55:41.633Z,9.00
2022-09-11T12:57:43.275Z,6.38
2022-09-11T12:59:46.666Z,5.40
2022-09-11T13:04:10.925Z,6.70
2022-09-11T13:06:13.746Z,6.65
2022-09-11T13:08:18.633Z,7.18
2022-09-11T13:10:28.836Z,6.32
2022-09-11T13:12:30.629Z,6.10
2022-09-11T13:14:32.270Z,6.95
2022-09-11T13:16:37.169Z,5.75
2022-09-11T13:18:43.564Z,6.97
2022-09-11T13:20:56.441Z,7.47
2022-09-11T13:23:15.325Z,5.90
2022-09-11T13:25:19.723Z,5.88
2022-09-11T13:27:30.125Z,8.10
2022-09-11T13:29:35.109Z,6.20
2022-09-11T13:31:38.201Z,7.03
2022-09-11T13:33:41.254Z,9.23
2022-09-11T13:35:45.114Z,14.63
2022-09-11T13:38:02.835Z,7.65
2022-09-11T13:40:06.239Z,8.13
2022-09-11T13:44:23.184Z,6.85
2022-09-11T13:46:27.953Z,6.07
2022-09-11T13:48:29.612Z,8.40
2022-09-11T13:50:31.363Z,7.38
2022-09-11T13:52:34.266Z,7.78
2022-09-11T13:54:46.871Z,7.40
2022-09-11T13:56:57.566Z,7.00
2022-09-11T13:59:02.653Z,7.15
2022-09-11T14:01:11.850Z,6.28
2022-09-11T14:03:20.489Z,5.45
2022-09-11T14:05:26.067Z,6.03
2022-09-11T14:07:27.721Z,6.63
2022-09-11T14:09:29.361Z,6.22
2022-09-11T14:11:32.340Z,6.18
2022-09-11T14:13:53.555Z,8.82
2022-09-11T14:16:04.318Z,7.00
2022-09-11T14:18:12.341Z,5.43
2022-09-11T14:20:17.288Z,7.38
2022-09-11T14:22:32.395Z,5.80
2022-09-11T14:24:36.359Z,6.85
2022-09-11T14:26:41.521Z,5.57
2022-09-11T14:29:09.333Z,6.22
2022-09-11T14:31:13.975Z,7.32
2022-09-11T14:33:21.867Z,6.55
2022-09-11T14:35:25.257Z,6.80
2022-09-11T14:37:29.250Z,8.43
2022-09-11T14:40:03.131Z,9.30
2022-09-11T14:42:09.159Z,6.05
2022-09-11T14:44:13.957Z,8.18
2022-09-11T14:46:16.201Z,6.55
2022-09-11T14:48:18.815Z,7.55
2022-09-11T14:50:21.283Z,6.90
2022-09-11T14:52:24.965Z,7.35
2022-09-11T14:54:31.897Z,6.10
2022-09-11T14:56:33.517Z,5.68
2022-09-11T14:58:35.269Z,5.75
2022-09-11T15:00:37.023Z,6.18
2022-09-11T15:02:39.092Z,5.70
2022-09-11T15:04:40.785Z,7.57
2022-09-11T15:06:42.351Z,6.20
2022-09-11T15:08:44.925Z,5.05
2022-09-11T15:10:48.747Z,6.33
2022-09-11T15:12:50.697Z,6.30
2022-09-11T15:14:57.617Z,6.88
2022-09-11T15:17:01.901Z,6.68
2022-09-11T15:21:05.364Z,7.97
2022-09-11T15:23:06.952Z,7.90
2022-09-11T15:25:08.770Z,5.95
2022-09-11T15:27:10.436Z,5.68
2022-09-11T15:29:12.125Z,8.77
2022-09-11T15:31:15.945Z,6.25
2022-09-11T15:33:17.530Z,7.45
2022-09-11T15:35:19.381Z,6.72
2022-09-11T15:37:21.373Z,7.05
2022-09-11T15:39:24.432Z,6.82
2022-09-11T15:41:28.059Z,6.70
2022-09-11T15:43:35.097Z,7.95
2022-09-11T15:45:42.396Z,7.75
2022-09-11T15:47:44.520Z,10.05
2022-09-11T15:49:47.966Z,8.35
2022-09-11T15:53:52.430Z,7.90
2022-09-11T15:56:07.460Z,9.30
2022-09-11T15:58:09.442Z,7.07
2022-09-11T16:00:12.403Z,8.98
2022-09-11T16:02:14.308Z,7.82
2022-09-11T16:04:20.203Z,9.93
2022-09-11T16:06:23.635Z,8.98
2022-09-11T16:08:25.450Z,10.82
2022-09-11T16:10:27.930Z,10.15
2022-09-11T16:12:29.553Z,9.27
2022-09-11T16:14:33.332Z,6.55
2022-09-11T16:16:35.312Z,6.97
2022-09-11T16:18:38.593Z,9.25
2022-09-11T16:20:41.671Z,7.55
2022-09-11T16:22:44.198Z,9.85
2022-09-11T16:24:46.062Z,8.55
2022-09-11T16:26:47.706Z,8.13
2022-09-11T16:28:49.359Z,8.85
2022-09-11T16:30:53.994Z,6.70
2022-09-11T16:32:55.572Z,6.68
2022-09-11T16:34:57.775Z,7.88
2022-09-11T16:37:00.411Z,7.10
2022-09-11T16:39:02.199Z,9.27
2022-09-11T16:41:09.395Z,7.18
2022-09-11T16:43:10.980Z,8.55
2022-09-11T16:45:31.032Z,7.35
2022-09-11T16:47:33.411Z,7.03
2022-09-11T16:49:50.490Z,8.32
2022-09-11T16:51:56.645Z,7.30
2022-09-11T16:53:58.477Z,7.88
2022-09-11T16:56:01.483Z,7.45
2022-09-11T16:58:03.559Z,7.10
2022-09-11T17:00:07.920Z,6.18
2022-09-11T17:02:10.141Z,5.38
2022-09-11T17:04:12.010Z,6.93
2022-09-11T17:06:15.004Z,9.40
2022-09-11T17:08:17.612Z,6.68
2022-09-11T17:10:19.271Z,8.27
2022-09-11T17:12:22.387Z,4.75
2022-09-11T17:14:24.180Z,8.02
2022-09-11T17:16:28.356Z,5.35
2022-09-11T17:18:30.100Z,4.43
2022-09-11T17:20:31.722Z,5.18
2022-09-11T17:22:33.394Z,6.85
2022-09-11T17:24:35.270Z,5.93
2022-09-11T17:26:36.862Z,5.28
2022-09-11T17:28:39.590Z,6.78
2022-09-11T17:30:41.390Z,4.47
2022-09-11T17:32:44.009Z,5.57
2022-09-11T17:34:47.020Z,4.80
2022-09-11T17:36:49.417Z,6.65
2022-09-11T17:38:52.703Z,5.55
2022-09-11T17:40:59.057Z,7.47
2022-09-11T17:43:01.222Z,5.40
2022-09-11T17:45:03.274Z,5.55
2022-09-11T17:47:05.039Z,9.25
2022-09-11T17:49:07.438Z,5.68
2022-09-11T17:51:11.845Z,4.50
2022-09-11T17:53:14.330Z,6.53
2022-09-11T17:55:16.250Z,5.70
2022-09-11T17:57:17.843Z,4.78
2022-09-11T17:59:20.540Z,6.70
2022-09-11T18:01:23.391Z,5.30
2022-09-11T18:03:25.301Z,5.22
2022-09-11T18:05:28.974Z,5.72
2022-09-11T18:09:32.328Z,4.80
2022-09-11T18:11:34.299Z,5.05
2022-09-11T18:13:36.400Z,6.55
2022-09-11T18:15:38.292Z,5.22
2022-09-11T18:17:40.486Z,6.03
2022-09-11T18:19:42.791Z,6.68
2022-09-11T18:21:49.399Z,6.28
2022-09-11T18:23:52.720Z,4.97
2022-09-11T18:25:55.042Z,5.33
2022-09-11T18:27:57.185Z,6.05
2022-09-11T18:30:00.002Z,4.72
2022-09-11T18:32:03.832Z,5.40
2022-09-11T18:34:07.052Z,5.28
2022-09-11T18:36:10.863Z,7.38
2022-09-11T18:38:13.499Z,5.03
2022-09-11T18:40:15.969Z,4.78
2022-09-11T18:42:18.852Z,5.82
2022-09-11T18:44:23.474Z,6.00
2022-09-11T18:46:27.502Z,5.65
2022-09-11T18:48:29.841Z,7.03
2022-09-11T18:50:32.045Z,5.43
2022-09-11T18:52:34.407Z,6.85
2022-09-11T18:54:37.581Z,5.40
2022-09-11T18:56:40.708Z,4.90
2022-09-11T18:58:43.122Z,5.40
2022-09-11T19:00:45.843Z,5.57
2022-09-11T19:02:50.461Z,5.40
2022-09-11T19:04:53.025Z,6.97
2022-09-11T19:06:55.588Z,6.45
2022-09-11T19:09:00.106Z,4.43
2022-09-11T19:11:07.885Z,5.13
2022-09-11T19:13:10.953Z,6.65
2022-09-11T19:15:13.282Z,7.25
2022-09-11T19:17:15.494Z,5.55
2022-09-11T19:19:18.781Z,5.28
2022-09-11T19:21:23.294Z,5.25
2022-09-11T19:23:25.879Z,4.85
2022-09-11T19:25:30.687Z,5.97
2022-09-11T19:27:33.428Z,6.38
2022-09-11T19:29:36.015Z,6.87
2022-09-11T19:31:39.711Z,4.65
2022-09-11T19:33:42.646Z,5.00
2022-09-11T19:35:44.818Z,4.45
2022-09-11T19:37:47.895Z,5.63
2022-09-11T19:39:52.233Z,5.22
2022-09-11T19:41:54.402Z,7.30
2022-09-11T19:44:00.384Z,4.93
2022-09-11T19:46:04.243Z,4.82
2022-09-11T19:50:09.255Z,4.72
2022-09-11T19:52:12.068Z,5.00
2022-09-11T19:54:14.714Z,3.93
2022-09-11T19:56:17.670Z,5.07
2022-09-11T19:58:23.799Z,5.15
2022-09-11T20:00:25.982Z,5.35
2022-09-11T20:02:27.910Z,5.47
2022-09-11T20:04:29.879Z,4.40
2022-09-11T20:06:33.121Z,6.68
2022-09-11T20:08:36.277Z,4.88
2022-09-11T20:10:40.749Z,6.18
2022-09-11T20:12:42.600Z,4.88
2022-09-11T20:14:44.221Z,6.15
2022-09-11T20:16:45.894Z,6.15
2022-09-11T20:18:47.550Z,7.70
2022-09-11T20:20:49.185Z,5.68
2022-09-11T20:22:50.794Z,6.25
2022-09-11T20:24:52.409Z,10.80
2022-09-11T20:26:54.679Z,5.82
2022-09-11T20:29:12.245Z,5.82
2022-09-11T20:31:22.733Z,6.22
2022-09-11T20:33:24.412Z,5.50
2022-09-11T20:35:26.332Z,5.65
2022-09-11T20:37:28.159Z,4.95
2022-09-11T20:39:29.789Z,5.15
2022-09-11T20:41:32.331Z,6.03
2022-09-11T20:43:34.849Z,6.70
2022-09-11T20:45:36.436Z,6.82
2022-09-11T20:47:38.027Z,4.93
2022-09-11T20:49:39.950Z,6.90
2022-09-11T20:51:41.782Z,5.82
2022-09-11T20:53:45.720Z,4.65
2022-09-11T20:55:48.148Z,5.03
2022-09-11T20:57:49.744Z,5.07
2022-09-11T20:59:51.373Z,5.80
2022-09-11T21:01:53.343Z,4.72
2022-09-11T21:03:56.564Z,6.00
2022-09-11T21:06:04.085Z,4.88
2022-09-11T21:08:05.723Z,4.35
2022-09-11T21:10:08.025Z,5.57
2022-09-11T21:12:09.637Z,4.25
2022-09-11T21:14:15.512Z,4.57
2022-09-11T21:16:17.704Z,5.53
2022-09-11T21:18:19.305Z,4.55
2022-09-11T21:20:21.129Z,4.63
2022-09-11T21:22:22.877Z,4.20
2022-09-11T21:24:24.481Z,4.90
2022-09-11T21:26:28.623Z,4.95
2022-09-11T21:28:30.972Z,4.35
2022-09-11T21:30:32.596Z,9.52
2022-09-11T21:32:34.300Z,5.05
2022-09-11T21:34:35.836Z,5.35
2022-09-11T21:36:37.493Z,6.68
2022-09-11T21:38:39.454Z,4.72
2022-09-11T21:40:41.041Z,4.00
2022-09-11T21:42:42.614Z,4.03
2022-09-11T21:44:44.354Z,5.30
2022-09-11T21:46:46.280Z,4.40
2022-09-11T21:48:47.988Z,5.20
2022-09-11T21:50:49.768Z,3.80
2022-09-11T21:52:52.040Z,3.97
2022-09-11T21:54:54.803Z,4.47
2022-09-11T21:56:56.424Z,4.07
2022-09-11T21:58:58.416Z,3.90
2022-09-11T22:01:08.721Z,3.90
2022-09-11T22:03:14.264Z,5.75
2022-09-11T22:05:15.968Z,3.60
2022-09-11T22:07:17.921Z,4.78
2022-09-11T22:09:20.828Z,4.13
2022-09-11T22:11:23.113Z,3.65
2022-09-11T22:13:24.730Z,7.45
2022-09-11T22:15:26.348Z,5.80
2022-09-11T22:17:28.794Z,4.60
2022-09-11T22:19:30.383Z,4.88
2022-09-11T22:21:32.018Z,4.53
2022-09-11T22:23:34.135Z,4.18
2022-09-11T22:25:36.921Z,5.53
2022-09-11T22:27:38.671Z,5.65
2022-09-11T22:29:44.009Z,5.35
2022-09-11T22:31:48.504Z,4.00
2022-09-11T22:33:50.277Z,5.35
2022-09-11T22:35:51.998Z,3.53
2022-09-11T22:37:53.573Z,4.18
2022-09-11T22:39:55.292Z,4.68
2022-09-11T22:41:57.063Z,5.00
2022-09-11T22:43:58.685Z,5.22
2022-09-11T22:46:00.439Z,5.72
2022-09-11T22:48:02.850Z,5.13
2022-09-11T22:50:04.825Z,4.43
2022-09-11T22:52:08.410Z,3.88
2022-09-11T22:54:13.823Z,6.63
2022-09-11T22:56:15.593Z,5.20
2022-09-11T22:58:17.415Z,4.45
2022-09-11T23:00:19.861Z,4.45
2022-09-11T23:02:21.714Z,3.90
2022-09-11T23:04:23.377Z,4.07
2022-09-11T23:06:43.481Z,4.65
2022-09-11T23:08:48.427Z,4.45
2022-09-11T23:10:50.257Z,4.88
2022-09-11T23:12:52.791Z,5.10
2022-09-11T23:14:54.558Z,4.57
2022-09-11T23:16:56.200Z,4.18
2022-09-11T23:19:00.415Z,5.03
2022-09-11T23:21:02.031Z,4.75
2022-09-11T23:23:04.005Z,5.60
2022-09-11T23:25:06.523Z,4.20
2022-09-11T23:27:08.200Z,4.70
2022-09-11T23:29:10.558Z,4.50
2022-09-11T23:31:20.964Z,5.88
2022-09-11T23:33:22.598Z,4.38
2022-09-11T23:35:24.212Z,7.15
2022-09-11T23:37:25.845Z,4.75
2022-09-11T23:39:27.474Z,6.55
2022-09-11T23:41:29.410Z,4.78
2022-09-11T23:43:31.125Z,5.85
2022-09-11T23:45:33.015Z,5.38
2022-09-11T23:47:34.638Z,4.07
2022-09-11T23:49:36.631Z,4.10
2022-09-11T23:51:39.042Z,7.10
2022-09-11T23:53:45.026Z,5.25
2022-09-11T23:55:48.927Z,6.40
2022-09-11T23:57:53.680Z,8.38
2022-09-11T23:59:55.318Z,5.57
